Wednesday, November 22, 2017, 12:54 PM GMT
Back to Local

CWPD, Parc Des Laurentid

Location: , , Canada Lat: 47.567
Local Time: 12:54 PM GMT (12:54 GMT) Lon: -71.233
Time Zone: GMT Elev: 2634 ft

Show me the last for .
Show Coded

Time T Td Feel RH Dir Speed Gust Alt SLP Vis Weather Sky Remarks
2017-11-22 11:00 31 31 - 100 170° 1 - - 29.82 0 1-hr Precip Total: 0.08"
2017-11-22 10:00 31 31 26 100 190° 5 - - 29.81 0 None
2017-11-22 09:00 31 31 - 100 180° 2 - - 29.80 0 None
2017-11-22 08:00 30 30 27 100 180° 3 - - 29.80 0 None
2017-11-22 07:00 31 30 27 98 180° 3 - - 29.80 0 None
2017-11-22 06:00 30 30 25 97 200° 6 - - 29.78 0 None
2017-11-22 05:00 31 29 25 90 200° 6 - - 29.78 0 None
2017-11-22 04:00 32 28 25 85 210° 8 - - 29.77 0 None
2017-11-22 03:00 31 27 24 87 210° 7 - - 29.77 0 None
2017-11-22 02:00 31 29 24 92 210° 7 - - 29.79 0 None
2017-11-22 01:00 31 29 19 94 190° 7 17 - 29.78 0 None
2017-11-22 00:00 29 27 22 90 170° 8 - - 29.79 0 None
2017-11-21 23:00 28 26 20 92 180° 7 - - 29.79 0 None
2017-11-21 22:00 27 26 19 92 180° 8 - - 29.79 0 None
2017-11-21 21:00 27 25 18 92 180° 9 - - 29.77 0 None
2017-11-21 20:00 27 25 14 92 180° 9 17 - 29.76 0 None
2017-11-21 19:00 27 25 19 92 170° 8 - - 29.76 0 None
2017-11-21 18:00 27 25 14 92 180° 7 18 - 29.76 0 None
2017-11-21 17:00 24 23 11 95 190° 9 17 - 29.78 0 1-hr Precip Total: 0.04"
2017-11-21 16:00 22 22 7 100 180° 10 18 - 29.82 0 None
2017-11-21 15:00 17 17 8 100 190° 7 - - 29.85 0 None
2017-11-21 14:00 14 13 4 98 190° 7 - - 29.88 0 None
2017-11-21 13:00 9 8 0 96 200° 5 - - 29.90 0 None

Support USWX by starting your Amazon purchase here.